首页
METAR-TAF:

METAR-TAF

机场 :

哥伦比亚, 南卡罗来纳州, 美国

纬度: 33-58-15N, 经度: 080-59-40W, 海拔: 64米

当前天气观测

该预报发布于6分钟前的13:05 UTC
风速6节,风向西转西南
温度 26°C
湿度 84%
气压 1017 hPa
能見度: 16.1公里
散云层高于1000英尺

METAR: KCUB 171305Z AUTO 25006KT 10SM SCT010 26/23 A3003 RMK AO2 T02610228

时间: 09:11 (13:11 UTC)

预报

该预报发布于1小时和40分钟前的11:31 UTC
预报有效从17日的 12点(UTC)到 18日的 12点(UTC)
风速3节,风向南转西南
能見度: 10公里
多云层高于800英尺
多云层高于15000英尺
从 17日的 1400点(UTC)
风速6节,风向西南
能見度: 10公里
多云层高于3500英尺
从 17日的 1900点(UTC)
风速8节,风向西转西南
能見度: 10公里
散云层高于5000英尺, 积雨云.
附近有雷暴
从 18日的 0000点(UTC)
风速5节,风向西南
能見度: 10公里
多云层高于5000英尺

TAF: KCUB 171131Z 1712/1812 21003KT P6SM BKN008 BKN150 FM171400 23006KT P6SM BKN035 FM171900 24008KT P6SM VCTS SCT050CB FM180000 23005KT P6SM BKN050

超过4000个机场的气象观测和天气预报(METAR&TAF报告)。

可查询的气象台以黄色和红色小点在地图上表示。

将鼠标移到小点上方,可查看气象台名称。

然后点击查看天气观测和预报。

如需切换地图:点击带黑十字的绿色按钮放大地图;点击带横线的绿色按钮缩小地图;或者点击绿色箭头查看邻近地区的地图。


METAR-TAF: